Time;durP1;ratioP1;P1;durP2;ratioP2;P2;SDS_P1;SDS_P2;PMS_P1;PMS_P2;Temp;Humidity;BMP_temperature;BMP_pressure;BME280_temperature;BME280_humidity;BME280_pressure;Samples;Min_cycle;Max_cycle;Signal;HPM_P1;HPM_P2
2022/08/13 00:00:59;;;;;;;10.68;2.75;;;;;;;;;;4992126;28;99268;-74
2022/08/13 00:03:26;;;;;;;;;;;;;;;;;;4994764;28;99928;-74
2022/08/13 00:06:14;;;;;;;5.65;3.38;;;;;;;;;;4994464;28;99378;-74
2022/08/13 00:08:53;;;;;;;3.33;2.97;;;;;;;;;;4992557;28;98582;-74
2022/08/13 00:14:29;;;;;;;4.68;2.70;;;;;;;;;;4993349;28;99655;-74
2022/08/13 00:17:03;;;;;;;6.55;2.80;;;;;;;;;;4993702;28;98679;-73
2022/08/13 00:19:30;;;;;;;5.75;2.97;;;;;;;;;;4996901;28;99266;-75
2022/08/13 00:21:57;;;;;;;3.78;3.45;;;;;;;;;;4992081;28;98581;-74
2022/08/13 00:24:45;;;;;;;10.88;4.18;;;;;;;;;;4991760;28;100341;-74
2022/08/13 00:27:21;;;;;;;14.38;4.32;;;;;;;;;;4993595;28;99896;-74
2022/08/13 00:29:56;;;;;;;6.10;4.53;;;;;;;;;;4992802;28;98689;-75
2022/08/13 00:32:29;;;;;;;7.20;4.43;;;;;;;;;;4994010;28;99107;-74
2022/08/13 00:35:04;;;;;;;8.48;4.20;;;;;;;;;;4993737;28;99206;-74
2022/08/13 00:37:37;;;;;;;8.82;4.78;;;;;;;;;;4992910;28;98416;-74
2022/08/13 00:40:18;;;;;;;16.00;4.13;;;;;;;;;;4994013;28;99016;-74
2022/08/13 00:43:03;;;;;;;13.38;3.78;;;;;;;;;;4995213;28;99414;-74
2022/08/13 00:45:32;;;;;;;7.35;3.63;;;;;;;;;;4994321;28;99390;-74
2022/08/13 00:50:44;;;;;;;5.47;3.38;;;;;;;;;;4993106;28;98580;-74
2022/08/13 00:53:16;;;;;;;5.05;3.67;;;;;;;;;;4991729;28;99586;-74
2022/08/13 00:55:49;;;;;;;9.60;3.97;;;;;;;;;;4992049;28;99264;-74
2022/08/13 00:58:16;;;;;;;3.22;2.85;;;;;;;;;;4992560;28;98528;-74
2022/08/13 01:00:47;;;;;;;6.50;2.67;;;;;;;;;;4992746;28;99107;-74
2022/08/13 01:03:17;;;;;;;9.57;2.75;;;;;;;;;;4992125;28;100279;-73
2022/08/13 01:05:44;;;;;;;7.60;2.80;;;;;;;;;;4995075;28;99031;-74
2022/08/13 01:08:16;;;;;;;6.13;3.20;;;;;;;;;;4992439;28;100439;-74
2022/08/13 01:10:44;;;;;;;4.40;2.87;;;;;;;;;;4993166;28;97647;-74
2022/08/13 01:13:26;;;;;;;4.78;2.92;;;;;;;;;;4993976;28;99240;-74
2022/08/13 01:15:58;;;;;;;10.38;3.20;;;;;;;;;;4993314;28;100217;-74
2022/08/13 01:18:27;;;;;;;5.88;2.88;;;;;;;;;;4992472;28;99844;-74
2022/08/13 01:21:08;;;;;;;4.38;2.80;;;;;;;;;;4992495;28;100648;-74
2022/08/13 01:23:35;;;;;;;5.03;2.75;;;;;;;;;;4991455;28;99512;-74
2022/08/13 01:26:06;;;;;;;4.85;3.10;;;;;;;;;;4992274;28;98917;-74
2022/08/13 01:28:38;;;;;;;8.18;3.50;;;;;;;;;;4995155;28;99117;-73
2022/08/13 01:31:09;;;;;;;6.13;3.15;;;;;;;;;;4992525;28;98547;-74
2022/08/13 01:33:45;;;;;;;11.48;3.05;;;;;;;;;;4991663;28;100531;-74
2022/08/13 01:36:18;;;;;;;3.20;2.85;;;;;;;;;;4994743;28;98616;-74
2022/08/13 01:39:05;;;;;;;3.90;2.92;;;;;;;;;;4991800;28;98457;-74
2022/08/13 01:41:41;;;;;;;8.98;3.67;;;;;;;;;;4992771;28;99789;-74
2022/08/13 01:44:20;;;;;;;6.20;3.00;;;;;;;;;;4991664;28;101124;-73
2022/08/13 01:52:31;;;;;;;3.45;3.15;;;;;;;;;;4994740;28;100246;-73
2022/08/13 01:54:57;;;;;;;11.23;3.50;;;;;;;;;;4990473;28;99275;-74
2022/08/13 01:57:24;;;;;;;16.60;3.10;;;;;;;;;;4991586;28;99731;-74
2022/08/13 02:00:13;;;;;;;3.35;2.67;;;;;;;;;;4991121;28;98585;-74
2022/08/13 02:02:54;;;;;;;5.18;2.83;;;;;;;;;;4992250;28;97816;-74
2022/08/13 02:05:22;;;;;;;5.18;3.00;;;;;;;;;;4991260;28;99991;-74
2022/08/13 02:08:09;;;;;;;7.30;2.80;;;;;;;;;;4992017;28;99350;-74
2022/08/13 02:10:37;;;;;;;4.28;2.80;;;;;;;;;;4991595;28;99961;-74
2022/08/13 02:13:06;;;;;;;3.30;3.00;;;;;;;;;;4992422;28;99441;-74
2022/08/13 02:15:34;;;;;;;4.55;2.97;;;;;;;;;;4993931;28;98451;-74
2022/08/13 02:18:14;;;;;;;9.70;2.85;;;;;;;;;;4991312;28;100534;-74
2022/08/13 02:20:44;;;;;;;4.47;3.08;;;;;;;;;;4991354;28;98570;-74
2022/08/13 02:23:16;;;;;;;3.70;3.25;;;;;;;;;;4991075;28;98949;-74
2022/08/13 02:25:45;;;;;;;10.50;3.28;;;;;;;;;;4991636;28;99675;-74
2022/08/13 02:28:22;;;;;;;3.30;3.05;;;;;;;;;;4991569;28;98278;-74
2022/08/13 02:30:56;;;;;;;6.25;3.10;;;;;;;;;;4991937;28;98460;-74
2022/08/13 02:33:24;;;;;;;3.55;2.75;;;;;;;;;;4991522;28;99256;-74
2022/08/13 02:35:51;;;;;;;7.03;3.28;;;;;;;;;;4993332;28;99812;-74
2022/08/13 02:38:18;;;;;;;6.25;2.80;;;;;;;;;;4991703;28;99440;-74
2022/08/13 02:41:43;;;;;;;6.90;3.15;;;;;;;;;;4991764;28;98536;-74
2022/08/13 02:43:50;;;;;;;4.65;3.20;;;;;;;;;;4982189;28;98967;-74
2022/08/13 02:46:25;;;;;;;5.43;2.85;;;;;;;;;;4991254;28;99719;-74
2022/08/13 02:48:53;;;;;;;11.05;3.00;;;;;;;;;;4991036;28;98761;-74
2022/08/13 02:51:23;;;;;;;7.63;3.33;;;;;;;;;;4991853;27;99272;-74
2022/08/13 02:54:10;;;;;;;7.53;2.80;;;;;;;;;;4991344;28;99466;-74
2022/08/13 02:56:38;;;;;;;4.55;2.78;;;;;;;;;;4990716;28;98499;-73
2022/08/13 02:59:10;;;;;;;5.50;3.20;;;;;;;;;;4994768;28;99280;-74
2022/08/13 03:01:56;;;;;;;3.35;3.05;;;;;;;;;;4990821;28;99229;-73
2022/08/13 03:04:23;;;;;;;10.60;3.33;;;;;;;;;;4990409;28;99751;-74
2022/08/13 03:06:58;;;;;;;5.15;2.78;;;;;;;;;;4992597;28;99374;-74
2022/08/13 03:09:24;;;;;;;6.50;3.08;;;;;;;;;;4994748;28;98534;-73
2022/08/13 03:11:52;;;;;;;3.33;3.00;;;;;;;;;;4994120;28;99950;-73
2022/08/13 03:14:19;;;;;;;7.68;3.10;;;;;;;;;;4994058;28;100361;-73
2022/08/13 03:16:45;;;;;;;4.80;3.33;;;;;;;;;;4994263;28;98542;-73
2022/08/13 03:19:15;;;;;;;10.40;2.80;;;;;;;;;;4994091;28;99018;-73
2022/08/13 03:21:45;;;;;;;3.05;2.85;;;;;;;;;;4997510;28;99281;-73
2022/08/13 03:24:13;;;;;;;5.72;3.05;;;;;;;;;;4994422;28;99231;-73
2022/08/13 03:26:55;;;;;;;3.00;2.80;;;;;;;;;;4993204;28;101180;-73
2022/08/13 03:29:22;;;;;;;6.40;2.80;;;;;;;;;;4995014;28;98473;-73
2022/08/13 03:32:10;;;;;;;5.80;2.97;;;;;;;;;;4994040;28;98865;-73
2022/08/13 03:34:39;;;;;;;5.35;2.70;;;;;;;;;;4994246;28;99183;-73
2022/08/13 03:37:06;;;;;;;3.05;2.50;;;;;;;;;;4995086;28;98541;-73
2022/08/13 03:39:33;;;;;;;5.25;3.20;;;;;;;;;;4994219;28;99076;-73
2022/08/13 03:42:06;;;;;;;4.95;3.08;;;;;;;;;;4994352;28;100293;-73
2022/08/13 03:44:33;;;;;;;4.82;3.70;;;;;;;;;;4998572;28;97630;-74
2022/08/13 03:47:01;;;;;;;7.10;2.80;;;;;;;;;;4993107;28;99466;-73
2022/08/13 03:49:28;;;;;;;6.00;2.70;;;;;;;;;;4994034;28;99272;-73
2022/08/13 03:51:56;;;;;;;5.45;2.97;;;;;;;;;;4992982;28;99492;-73
2022/08/13 03:54:25;;;;;;;7.55;3.35;;;;;;;;;;4993640;28;99481;-73
2022/08/13 03:56:52;;;;;;;3.13;2.90;;;;;;;;;;4994127;28;98510;-73
2022/08/13 03:59:27;;;;;;;6.05;2.80;;;;;;;;;;4994176;28;98997;-73
2022/08/13 04:02:12;;;;;;;4.55;3.25;;;;;;;;;;4993678;28;99016;-73
2022/08/13 04:04:46;;;;;;;;;;;;;;;;;;4994563;28;98500;-73
2022/08/13 04:07:16;;;;;;;5.93;2.97;;;;;;;;;;4996589;28;128953;-73
2022/08/13 04:09:43;;;;;;;3.30;2.92;;;;;;;;;;4994917;28;97774;-73
2022/08/13 04:12:21;;;;;;;5.00;2.83;;;;;;;;;;4995158;28;98924;-73
2022/08/13 04:14:47;;;;;;;3.10;2.80;;;;;;;;;;4992906;28;99396;-73
2022/08/13 04:17:24;;;;;;;6.53;2.85;;;;;;;;;;4993575;28;99196;-73
2022/08/13 04:19:52;;;;;;;8.70;2.90;;;;;;;;;;4993071;28;100720;-73
2022/08/13 04:22:20;;;;;;;5.20;2.40;;;;;;;;;;4992321;28;98904;-73
2022/08/13 04:24:49;;;;;;;3.65;2.47;;;;;;;;;;4972903;28;98559;-73
2022/08/13 04:27:15;;;;;;;3.53;2.67;;;;;;;;;;4991746;28;99187;-73
2022/08/13 04:29:43;;;;;;;3.38;2.50;;;;;;;;;;4992863;28;98906;-73
2022/08/13 04:32:15;;;;;;;5.18;2.95;;;;;;;;;;4994002;28;99863;-73
2022/08/13 04:34:51;;;;;;;4.43;3.17;;;;;;;;;;4992783;28;98532;-73
2022/08/13 04:37:24;;;;;;;7.47;2.63;;;;;;;;;;4993114;28;98567;-73
2022/08/13 04:40:00;;;;;;;10.55;3.15;;;;;;;;;;4993174;28;100045;-73
2022/08/13 04:42:45;;;;;;;5.90;3.00;;;;;;;;;;4991540;28;101019;-73
2022/08/13 04:45:15;;;;;;;5.35;3.20;;;;;;;;;;4993232;28;99334;-73
2022/08/13 04:47:42;;;;;;;5.60;3.30;;;;;;;;;;4992616;28;99225;-73
2022/08/13 04:50:11;;;;;;;8.65;2.85;;;;;;;;;;4995603;28;99348;-73
2022/08/13 04:52:43;;;;;;;3.83;2.70;;;;;;;;;;4992110;28;99082;-73
2022/08/13 04:55:15;;;;;;;7.20;2.63;;;;;;;;;;4992893;28;99559;-73
2022/08/13 04:57:42;;;;;;;5.25;2.85;;;;;;;;;;4991780;28;98626;-73
2022/08/13 05:00:29;;;;;;;3.42;2.70;;;;;;;;;;4993487;28;99081;-73
2022/08/13 05:02:55;;;;;;;4.57;2.92;;;;;;;;;;4992161;27;99520;-73
2022/08/13 05:05:24;;;;;;;3.47;3.10;;;;;;;;;;4992954;28;98694;-73
2022/08/13 05:07:52;;;;;;;6.90;2.67;;;;;;;;;;4991530;28;100033;-73
2022/08/13 05:10:19;;;;;;;6.45;2.90;;;;;;;;;;4991579;28;100154;-73
2022/08/13 05:12:56;;;;;;;11.23;3.20;;;;;;;;;;4995622;28;98398;-73
2022/08/13 05:15:23;;;;;;;7.38;2.78;;;;;;;;;;4992095;28;99638;-73
2022/08/13 05:18:09;;;;;;;4.80;3.17;;;;;;;;;;4991983;28;99053;-73
2022/08/13 05:20:48;;;;;;;5.43;2.90;;;;;;;;;;4992185;28;98481;-73
2022/08/13 05:23:18;;;;;;;5.03;3.47;;;;;;;;;;4992101;28;99445;-73
2022/08/13 05:26:05;;;;;;;6.20;3.30;;;;;;;;;;4991696;28;97845;-73
2022/08/13 05:28:52;;;;;;;9.43;3.10;;;;;;;;;;4991053;28;98523;-73
2022/08/13 05:31:18;;;;;;;3.65;3.28;;;;;;;;;;4990759;28;99524;-73
2022/08/13 05:33:47;;;;;;;7.22;3.10;;;;;;;;;;4991651;28;99275;-73
2022/08/13 05:36:31;;;;;;;11.85;3.70;;;;;;;;;;4995374;28;99918;-73
2022/08/13 05:39:17;;;;;;;9.45;3.60;;;;;;;;;;4991932;28;98507;-72
2022/08/13 05:41:47;;;;;;;5.65;3.25;;;;;;;;;;4991870;28;99085;-73
2022/08/13 05:44:33;;;;;;;7.03;3.35;;;;;;;;;;4992369;28;99135;-73
2022/08/13 05:47:02;;;;;;;5.10;3.30;;;;;;;;;;4991212;28;98560;-73
2022/08/13 05:49:28;;;;;;;10.63;3.00;;;;;;;;;;4992289;28;99322;-73
2022/08/13 05:52:07;;;;;;;13.18;3.95;;;;;;;;;;4990172;28;98719;-73
2022/08/13 05:54:55;;;;;;;3.72;3.13;;;;;;;;;;4992789;27;98386;-73
2022/08/13 05:57:42;;;;;;;6.70;3.35;;;;;;;;;;4991836;28;99012;-73
2022/08/13 06:06:06;;;;;;;5.40;2.60;;;;;;;;;;4992355;27;99393;-73
2022/08/13 06:08:41;;;;;;;7.95;3.08;;;;;;;;;;4991470;28;98462;-74
2022/08/13 06:11:11;;;;;;;2.85;2.50;;;;;;;;;;4991705;28;99066;-73
2022/08/13 06:13:45;;;;;;;4.20;2.65;;;;;;;;;;4990050;28;100166;-73
2022/08/13 06:16:33;;;;;;;2.88;2.67;;;;;;;;;;4991877;28;98521;-73
2022/08/13 06:19:21;;;;;;;3.75;2.20;;;;;;;;;;4991722;28;99125;-73
2022/08/13 06:21:55;;;;;;;5.85;2.95;;;;;;;;;;4990399;28;100070;-73
2022/08/13 06:24:27;;;;;;;8.38;2.67;;;;;;;;;;4994907;28;98497;-73
2022/08/13 06:26:54;;;;;;;6.10;2.38;;;;;;;;;;4990104;28;101289;-73
2022/08/13 06:29:22;;;;;;;2.75;2.55;;;;;;;;;;4990985;28;98890;-73
2022/08/13 06:31:55;;;;;;;4.10;2.50;;;;;;;;;;4991377;28;99086;-73
2022/08/13 06:34:24;;;;;;;12.82;2.70;;;;;;;;;;4990587;28;100146;-73
2022/08/13 06:37:07;;;;;;;10.75;2.80;;;;;;;;;;4991499;28;98474;-73
2022/08/13 06:39:36;;;;;;;4.43;2.10;;;;;;;;;;4991727;28;100379;-73
2022/08/13 06:42:03;;;;;;;8.52;2.80;;;;;;;;;;4990792;28;98756;-73
2022/08/13 06:44:32;;;;;;;2.70;2.50;;;;;;;;;;4994822;28;97834;-73
2022/08/13 06:47:04;;;;;;;5.55;2.53;;;;;;;;;;4991305;28;100356;-74
2022/08/13 06:49:31;;;;;;;5.97;2.92;;;;;;;;;;4989949;28;98869;-73
2022/08/13 06:52:18;;;;;;;5.38;2.70;;;;;;;;;;4990601;28;99181;-73
2022/08/13 06:54:44;;;;;;;8.40;2.33;;;;;;;;;;4991091;28;98599;-73
2022/08/13 06:57:16;;;;;;;15.65;2.20;;;;;;;;;;4990492;28;98926;-73
2022/08/13 06:59:54;;;;;;;5.60;1.92;;;;;;;;;;4991090;28;99661;-73
2022/08/13 07:02:42;;;;;;;4.20;2.10;;;;;;;;;;4969925;28;98549;-73
2022/08/13 07:05:11;;;;;;;4.95;2.25;;;;;;;;;;4971000;28;99122;-73
2022/08/13 07:07:45;;;;;;;4.38;2.10;;;;;;;;;;4974369;28;99542;-73
2022/08/13 07:10:13;;;;;;;2.47;1.80;;;;;;;;;;4970027;28;97865;-73
2022/08/13 07:12:41;;;;;;;7.05;2.15;;;;;;;;;;4971048;28;98551;-74
2022/08/13 07:15:13;;;;;;;6.20;1.88;;;;;;;;;;4970930;28;99173;-74
2022/08/13 07:17:50;;;;;;;4.20;2.13;;;;;;;;;;4970464;28;99259;-74
2022/08/13 07:20:20;;;;;;;5.50;1.98;;;;;;;;;;4988307;28;101973;-72
2022/08/13 07:22:49;;;;;;;6.53;1.80;;;;;;;;;;4990705;28;100208;-73
2022/08/13 07:25:37;;;;;;;7.82;2.00;;;;;;;;;;4990465;28;98541;-74
2022/08/13 07:28:28;;;;;;;5.18;2.03;;;;;;;;;;4991251;28;99926;-74
2022/08/13 07:31:14;;;;;;;7.63;2.00;;;;;;;;;;4993500;28;100790;-73
2022/08/13 07:33:51;;;;;;;10.63;2.30;;;;;;;;;;4990876;28;98477;-74
2022/08/13 07:36:24;;;;;;;14.52;1.90;;;;;;;;;;4991147;28;99328;-74
2022/08/13 07:38:51;;;;;;;7.43;1.65;;;;;;;;;;4989774;28;99104;-74
2022/08/13 07:41:20;;;;;;;16.35;2.22;;;;;;;;;;4990731;28;100173;-74
2022/08/13 07:43:47;;;;;;;2.45;2.08;;;;;;;;;;4989312;28;101044;-74
2022/08/13 07:46:34;;;;;;;12.10;1.98;;;;;;;;;;4980532;28;98530;-74
2022/08/13 07:49:00;;;;;;;3.20;1.60;;;;;;;;;;4990627;28;99024;-74
2022/08/13 07:51:30;;;;;;;7.35;1.90;;;;;;;;;;4990061;28;100428;-74
2022/08/13 07:54:04;;;;;;;8.10;2.00;;;;;;;;;;4997244;28;98746;-74
2022/08/13 07:56:35;;;;;;;8.23;1.50;;;;;;;;;;4993198;28;100567;-73
2022/08/13 07:59:02;;;;;;;9.73;1.50;;;;;;;;;;4993339;28;98571;-74
2022/08/13 08:01:31;;;;;;;7.25;1.70;;;;;;;;;;4994315;28;98975;-74
2022/08/13 08:04:18;;;;;;;10.57;2.08;;;;;;;;;;4993467;28;100429;-74
2022/08/13 08:06:56;;;;;;;3.13;1.58;;;;;;;;;;4992712;28;98592;-73
2022/08/13 08:09:24;;;;;;;11.55;2.10;;;;;;;;;;4992933;28;99865;-74
2022/08/13 08:14:43;;;;;;;5.63;1.85;;;;;;;;;;4992314;28;98738;-73
2022/08/13 08:17:22;;;;;;;7.15;1.60;;;;;;;;;;4996747;28;99068;-73
2022/08/13 08:20:09;;;;;;;5.47;1.83;;;;;;;;;;4992416;28;99030;-73
2022/08/13 08:22:45;;;;;;;3.70;1.65;;;;;;;;;;4993176;28;99958;-73
2022/08/13 08:25:18;;;;;;;7.70;2.38;;;;;;;;;;4993436;28;99421;-73
2022/08/13 08:27:47;;;;;;;7.13;2.03;;;;;;;;;;4992993;28;98422;-72
2022/08/13 08:30:34;;;;;;;6.78;1.80;;;;;;;;;;4993441;28;98351;-73
2022/08/13 08:33:01;;;;;;;6.10;1.88;;;;;;;;;;4992572;28;99674;-72
2022/08/13 08:35:37;;;;;;;1.52;1.42;;;;;;;;;;4992103;28;99518;-73
2022/08/13 08:44:15;;;;;;;10.32;2.72;;;;;;;;;;4992574;28;100455;-73
2022/08/13 08:46:43;;;;;;;5.68;2.03;;;;;;;;;;4992420;28;100000;-73
2022/08/13 08:49:14;;;;;;;;;;;;;;;;;;4992986;28;98618;-73
2022/08/13 08:51:52;;;;;;;5.95;1.63;;;;;;;;;;4992650;28;124961;-73
2022/08/13 08:54:20;;;;;;;11.38;1.83;;;;;;;;;;4993398;28;100003;-73
2022/08/13 08:56:58;;;;;;;3.58;1.90;;;;;;;;;;4992180;28;98965;-73
2022/08/13 08:59:26;;;;;;;3.55;1.77;;;;;;;;;;4993044;28;99092;-74
2022/08/13 09:01:55;;;;;;;3.58;1.80;;;;;;;;;;4994389;28;101508;-73
2022/08/13 09:04:28;;;;;;;3.38;1.80;;;;;;;;;;4991390;28;100586;-74
2022/08/13 09:07:15;;;;;;;1.80;1.70;;;;;;;;;;4992346;28;99366;-74
2022/08/13 09:09:43;;;;;;;2.40;1.48;;;;;;;;;;4992101;28;98600;-74
2022/08/13 09:12:13;;;;;;;5.72;1.45;;;;;;;;;;4992845;28;99972;-74
2022/08/13 09:14:40;;;;;;;2.78;1.83;;;;;;;;;;4991469;28;99441;-73
2022/08/13 09:17:07;;;;;;;9.00;1.95;;;;;;;;;;4992168;28;98512;-74
2022/08/13 09:19:40;;;;;;;3.97;1.60;;;;;;;;;;4993428;28;100057;-74
2022/08/13 09:22:20;;;;;;;7.57;1.70;;;;;;;;;;4992622;28;100273;-74
2022/08/13 09:24:52;;;;;;;5.65;1.77;;;;;;;;;;4996073;28;99071;-73
2022/08/13 09:27:19;;;;;;;3.85;1.25;;;;;;;;;;4992953;28;100368;-74
2022/08/13 09:29:50;;;;;;;2.35;1.50;;;;;;;;;;4992794;28;98518;-74
2022/08/13 09:32:28;;;;;;;4.05;1.38;;;;;;;;;;4992480;28;98905;-74
2022/08/13 09:34:59;;;;;;;7.57;1.20;;;;;;;;;;4992685;28;99307;-74
2022/08/13 09:37:25;;;;;;;4.18;1.63;;;;;;;;;;4991898;28;98933;-75
2022/08/13 09:39:54;;;;;;;9.50;1.48;;;;;;;;;;4992549;28;99439;-75
2022/08/13 09:42:27;;;;;;;2.70;1.50;;;;;;;;;;4992896;28;99475;-74
2022/08/13 09:44:54;;;;;;;2.25;1.42;;;;;;;;;;4990809;28;97818;-74
2022/08/13 09:47:21;;;;;;;2.72;1.60;;;;;;;;;;4994898;28;98480;-74
2022/08/13 09:50:08;;;;;;;5.43;1.52;;;;;;;;;;4993091;28;98459;-74
2022/08/13 09:52:35;;;;;;;4.93;2.10;;;;;;;;;;4990408;28;102559;-75
2022/08/13 09:55:04;;;;;;;3.33;1.30;;;;;;;;;;4992663;28;99158;-75
2022/08/13 09:57:30;;;;;;;2.38;1.42;;;;;;;;;;4992431;28;98463;-75
2022/08/13 09:59:59;;;;;;;2.80;1.30;;;;;;;;;;4990961;28;98883;-75
2022/08/13 10:02:25;;;;;;;2.63;1.30;;;;;;;;;;4992002;28;99568;-75
2022/08/13 10:04:55;;;;;;;1.90;1.30;;;;;;;;;;4991778;28;98616;-75
2022/08/13 10:07:22;;;;;;;7.00;1.20;;;;;;;;;;4991909;28;100006;-75
2022/08/13 10:09:49;;;;;;;2.55;1.25;;;;;;;;;;4995525;28;98732;-74
2022/08/13 10:12:35;;;;;;;1.85;1.15;;;;;;;;;;4991016;28;98612;-74
2022/08/13 10:15:03;;;;;;;5.22;1.30;;;;;;;;;;4991404;28;99561;-75
2022/08/13 10:17:48;;;;;;;3.90;1.17;;;;;;;;;;4991766;28;99233;-75
2022/08/13 10:20:19;;;;;;;1.73;1.13;;;;;;;;;;4991173;28;99903;-75
2022/08/13 10:22:46;;;;;;;4.03;1.17;;;;;;;;;;4991102;28;99424;-75
2022/08/13 10:25:13;;;;;;;2.78;1.20;;;;;;;;;;4991944;28;98543;-75
2022/08/13 10:27:44;;;;;;;3.65;1.30;;;;;;;;;;4990963;28;98771;-75
2022/08/13 10:30:24;;;;;;;6.32;1.35;;;;;;;;;;4991242;28;99307;-76
2022/08/13 10:33:12;;;;;;;4.47;1.17;;;;;;;;;;4994960;28;98565;-73
2022/08/13 10:35:39;;;;;;;5.00;1.45;;;;;;;;;;4990346;28;98789;-73
2022/08/13 10:38:16;;;;;;;3.92;1.17;;;;;;;;;;4991465;28;98483;-73
2022/08/13 10:40:45;;;;;;;2.47;1.17;;;;;;;;;;4991286;28;98440;-76
2022/08/13 10:43:11;;;;;;;1.60;1.23;;;;;;;;;;4991035;28;100165;-76
2022/08/13 10:45:51;;;;;;;2.90;1.30;;;;;;;;;;4991829;28;98481;-76
2022/08/13 10:48:17;;;;;;;2.08;0.98;;;;;;;;;;4990793;28;98468;-76
2022/08/13 10:50:45;;;;;;;4.60;1.17;;;;;;;;;;4990835;28;99224;-76
2022/08/13 10:56:11;;;;;;;1.80;0.80;;;;;;;;;;4994049;28;99092;-76
2022/08/13 10:58:40;;;;;;;2.35;0.90;;;;;;;;;;4991393;28;99061;-75
2022/08/13 11:01:16;;;;;;;5.15;1.25;;;;;;;;;;4992209;28;98934;-75
2022/08/13 11:03:46;;;;;;;4.85;0.93;;;;;;;;;;4990102;28;99155;-75
2022/08/13 11:06:15;;;;;;;2.35;0.90;;;;;;;;;;4991698;28;98519;-75
2022/08/13 11:08:42;;;;;;;1.60;0.95;;;;;;;;;;4990376;28;99274;-75
2022/08/13 11:11:10;;;;;;;5.55;1.02;;;;;;;;;;4990825;28;100290;-75
2022/08/13 11:13:56;;;;;;;8.20;1.10;;;;;;;;;;4991041;28;98484;-74
2022/08/13 11:17:07;;;;;;;1.10;1.10;;;;;;;;;;4993403;28;99577;-74
2022/08/13 11:19:17;;;;;;;4.20;1.00;;;;;;;;;;4982679;28;98718;-74
2022/08/13 11:21:44;;;;;;;6.82;1.15;;;;;;;;;;4990707;28;99242;-74
2022/08/13 11:24:30;;;;;;;1.58;1.10;;;;;;;;;;4989966;28;99712;-74
2022/08/13 11:27:03;;;;;;;3.17;1.23;;;;;;;;;;4991497;28;97717;-74
2022/08/13 11:29:34;;;;;;;;;;;;;;;;;;4995312;28;99182;-74
2022/08/13 11:32:03;;;;;;;4.38;0.88;;;;;;;;;;4993692;28;130341;-75
2022/08/13 11:34:29;;;;;;;7.47;0.98;;;;;;;;;;4993260;28;99317;-74
2022/08/13 11:36:56;;;;;;;2.97;1.27;;;;;;;;;;4992928;28;100695;-74
2022/08/13 11:39:26;;;;;;;1.23;0.90;;;;;;;;;;4997622;28;99307;-74
2022/08/13 11:42:12;;;;;;;5.10;0.90;;;;;;;;;;4993867;28;99078;-74
2022/08/13 11:44:39;;;;;;;2.65;0.93;;;;;;;;;;4992897;28;100657;-74
2022/08/13 11:47:05;;;;;;;0.95;0.95;;;;;;;;;;4994636;28;98522;-74
2022/08/13 11:49:45;;;;;;;1.52;1.33;;;;;;;;;;4993812;28;98948;-74
2022/08/13 11:52:16;;;;;;;3.20;0.98;;;;;;;;;;4993346;28;99434;-74
2022/08/13 11:54:53;;;;;;;2.15;0.98;;;;;;;;;;4993954;28;98522;-74
2022/08/13 11:57:22;;;;;;;4.75;0.98;;;;;;;;;;4993813;28;99063;-74
2022/08/13 11:59:48;;;;;;;0.95;0.95;;;;;;;;;;4993064;28;100748;-74
2022/08/13 12:02:23;;;;;;;5.03;1.20;;;;;;;;;;4997169;28;98599;-74
2022/08/13 12:04:58;;;;;;;3.67;1.40;;;;;;;;;;4992277;28;99892;-75
2022/08/13 12:07:31;;;;;;;3.50;1.00;;;;;;;;;;4994429;28;98575;-75
2022/08/13 12:10:02;;;;;;;12.55;1.02;;;;;;;;;;4992547;28;99066;-75
2022/08/13 12:12:30;;;;;;;1.80;0.98;;;;;;;;;;4992712;28;99373;-75
2022/08/13 12:15:07;;;;;;;4.05;0.80;;;;;;;;;;4994176;28;98545;-75
2022/08/13 12:17:34;;;;;;;2.67;1.00;;;;;;;;;;4994071;28;98898;-75
2022/08/13 12:20:19;;;;;;;9.48;1.05;;;;;;;;;;4992805;28;99345;-74
2022/08/13 12:22:50;;;;;;;3.13;0.98;;;;;;;;;;4993101;28;98500;-75
2022/08/13 12:25:18;;;;;;;;;;;;;;;;;;4996252;28;99297;-74
2022/08/13 12:28:15;;;;;;;1.13;1.00;;;;;;;;;;4994072;28;98561;-75
2022/08/13 12:30:57;;;;;;;1.17;0.90;;;;;;;;;;4993328;28;100022;-73
2022/08/13 12:33:27;;;;;;;3.13;1.35;;;;;;;;;;4991999;28;100281;-74
2022/08/13 12:35:56;;;;;;;3.55;0.90;;;;;;;;;;4973398;28;98480;-74
2022/08/13 12:38:23;;;;;;;3.75;1.10;;;;;;;;;;4972867;28;99902;-74
2022/08/13 12:40:58;;;;;;;2.72;0.95;;;;;;;;;;4971235;28;99356;-74
2022/08/13 12:43:43;;;;;;;2.80;1.08;;;;;;;;;;4973682;28;97885;-74
2022/08/13 12:46:29;;;;;;;2.63;1.50;;;;;;;;;;4973374;28;99191;-74
2022/08/13 12:48:59;;;;;;;1.98;1.23;;;;;;;;;;4975224;28;99887;-73
2022/08/13 12:51:27;;;;;;;1.70;1.00;;;;;;;;;;4972101;28;99306;-74
2022/08/13 12:54:14;;;;;;;8.30;1.15;;;;;;;;;;4972186;28;99342;-74
2022/08/13 12:57:00;;;;;;;7.47;1.23;;;;;;;;;;4973235;28;98482;-74
2022/08/13 12:59:30;;;;;;;5.93;1.20;;;;;;;;;;4973428;28;99977;-74
2022/08/13 13:02:03;;;;;;;5.28;1.15;;;;;;;;;;4972059;28;99319;-74
2022/08/13 13:04:30;;;;;;;2.45;1.20;;;;;;;;;;4984734;28;98478;-74
2022/08/13 13:06:56;;;;;;;0.90;0.90;;;;;;;;;;4992616;28;99275;-74
2022/08/13 13:09:24;;;;;;;2.10;1.10;;;;;;;;;;4992617;28;98513;-74
2022/08/13 13:12:10;;;;;;;1.73;1.63;;;;;;;;;;4996446;28;98459;-74
2022/08/13 13:14:37;;;;;;;5.32;0.98;;;;;;;;;;4992710;28;100364;-74
2022/08/13 13:17:04;;;;;;;1.75;1.02;;;;;;;;;;4992158;28;99447;-74
2022/08/13 13:19:53;;;;;;;2.50;1.23;;;;;;;;;;4992801;28;99760;-74
2022/08/13 13:22:36;;;;;;;10.93;1.27;;;;;;;;;;4975630;28;99505;-74
2022/08/13 13:25:04;;;;;;;1.88;1.15;;;;;;;;;;4992751;28;98533;-74
2022/08/13 13:27:32;;;;;;;4.88;1.35;;;;;;;;;;4993089;28;99046;-74
2022/08/13 13:30:12;;;;;;;3.25;1.02;;;;;;;;;;4992035;28;100297;-74
2022/08/13 13:32:41;;;;;;;3.15;0.98;;;;;;;;;;4995569;28;98478;-74
2022/08/13 13:35:13;;;;;;;1.73;1.27;;;;;;;;;;4993239;28;99559;-74
2022/08/13 13:38:00;;;;;;;2.03;1.38;;;;;;;;;;4992452;28;98547;-74
2022/08/13 13:40:38;;;;;;;0.95;0.95;;;;;;;;;;4993104;28;99167;-74
2022/08/13 13:43:11;;;;;;;1.77;1.25;;;;;;;;;;4991548;28;101687;-74
2022/08/13 13:45:50;;;;;;;3.72;1.23;;;;;;;;;;4992507;28;99308;-74
2022/08/13 13:48:31;;;;;;;3.75;1.30;;;;;;;;;;4992882;28;99066;-74
2022/08/13 13:50:58;;;;;;;4.18;1.58;;;;;;;;;;4990283;28;99426;-74
2022/08/13 13:53:26;;;;;;;1.35;1.25;;;;;;;;;;4991958;28;98700;-74
2022/08/13 13:56:13;;;;;;;1.17;1.15;;;;;;;;;;4995300;28;100110;-74
2022/08/13 13:58:40;;;;;;;1.02;0.90;;;;;;;;;;4991256;28;99007;-74
2022/08/13 14:01:21;;;;;;;1.05;1.05;;;;;;;;;;4992433;28;99566;-74
2022/08/13 14:03:49;;;;;;;6.55;1.30;;;;;;;;;;4990657;28;99672;-74
2022/08/13 14:06:19;;;;;;;3.80;1.10;;;;;;;;;;4991267;28;98528;-74
2022/08/13 14:08:48;;;;;;;6.18;1.23;;;;;;;;;;4991380;28;99324;-74
2022/08/13 14:11:17;;;;;;;3.30;1.20;;;;;;;;;;4991470;28;100411;-74
2022/08/13 14:13:44;;;;;;;2.30;1.02;;;;;;;;;;4990380;28;99099;-74
2022/08/13 14:16:12;;;;;;;4.18;1.50;;;;;;;;;;4991907;28;99958;-74
2022/08/13 14:18:40;;;;;;;10.23;1.40;;;;;;;;;;5025859;28;100419;-74
2022/08/13 14:21:08;;;;;;;6.72;1.00;;;;;;;;;;4991402;28;100184;-74
2022/08/13 14:23:35;;;;;;;4.50;1.20;;;;;;;;;;4990947;28;99630;-74
2022/08/13 14:26:08;;;;;;;3.45;1.02;;;;;;;;;;4991536;28;97804;-74
2022/08/13 14:28:36;;;;;;;2.92;1.17;;;;;;;;;;4990763;28;98536;-74
2022/08/13 14:31:03;;;;;;;1.02;1.02;;;;;;;;;;4990269;28;99406;-74
2022/08/13 14:33:31;;;;;;;5.68;1.05;;;;;;;;;;4990609;28;99274;-74
2022/08/13 14:36:17;;;;;;;1.38;0.98;;;;;;;;;;4992569;28;98764;-74
2022/08/13 14:38:54;;;;;;;1.50;1.00;;;;;;;;;;4990462;28;99415;-74
2022/08/13 14:41:21;;;;;;;3.03;0.90;;;;;;;;;;4993942;28;99268;-74
2022/08/13 14:43:48;;;;;;;7.75;1.20;;;;;;;;;;4990338;28;101177;-74
2022/08/13 14:46:26;;;;;;;4.78;1.30;;;;;;;;;;4991194;28;98513;-74
2022/08/13 14:48:54;;;;;;;1.58;1.00;;;;;;;;;;4990918;28;98926;-74
2022/08/13 14:51:23;;;;;;;4.30;1.15;;;;;;;;;;4991680;28;98686;-74
2022/08/13 14:53:51;;;;;;;2.67;1.00;;;;;;;;;;4990315;28;98596;-74
2022/08/13 14:56:18;;;;;;;6.13;1.10;;;;;;;;;;4990883;28;99110;-74
2022/08/13 14:58:45;;;;;;;1.73;1.20;;;;;;;;;;4989198;28;100277;-74
2022/08/13 15:01:23;;;;;;;1.27;1.17;;;;;;;;;;4991807;28;98619;-74
2022/08/13 15:03:51;;;;;;;1.85;1.10;;;;;;;;;;4997495;28;99191;-74
2022/08/13 15:06:20;;;;;;;5.07;1.20;;;;;;;;;;4994920;28;98656;-74
2022/08/13 15:08:50;;;;;;;6.78;1.30;;;;;;;;;;4993644;28;99156;-73
2022/08/13 15:11:17;;;;;;;3.72;1.00;;;;;;;;;;4993962;28;99255;-74
2022/08/13 15:13:45;;;;;;;4.85;1.20;;;;;;;;;;4994374;28;98478;-74
2022/08/13 15:16:24;;;;;;;1.63;1.20;;;;;;;;;;4994497;28;97957;-74
2022/08/13 15:18:57;;;;;;;5.75;1.67;;;;;;;;;;4993675;28;99092;-74
2022/08/13 15:21:28;;;;;;;7.38;1.20;;;;;;;;;;4994698;28;98783;-74
2022/08/13 15:24:21;;;;;;;5.13;1.40;;;;;;;;;;4996552;28;99132;-74
2022/08/13 15:26:49;;;;;;;5.60;1.02;;;;;;;;;;4993852;28;98962;-74
2022/08/13 15:29:17;;;;;;;3.50;1.05;;;;;;;;;;4992803;28;99921;-74
2022/08/13 15:31:43;;;;;;;2.88;1.13;;;;;;;;;;4993177;28;99318;-74
2022/08/13 15:34:11;;;;;;;13.27;1.33;;;;;;;;;;4994355;28;98941;-74
2022/08/13 15:36:38;;;;;;;2.55;1.00;;;;;;;;;;4993163;28;99898;-74
2022/08/13 15:39:25;;;;;;;7.03;1.40;;;;;;;;;;4994276;28;99386;-74
2022/08/13 15:42:11;;;;;;;0.93;0.90;;;;;;;;;;4994851;28;97868;-74
2022/08/13 15:44:39;;;;;;;1.20;1.10;;;;;;;;;;4993268;28;99273;-74